createdAt,value
2019-05-20T00:01:24.969Z,3.30
2019-05-20T00:04:12.557Z,3.60
2019-05-20T00:06:59.973Z,3.07
2019-05-20T00:09:47.331Z,3.00
2019-05-20T00:12:35.105Z,3.07
2019-05-20T00:15:22.581Z,3.00
2019-05-20T00:18:10.523Z,2.63
2019-05-20T00:20:58.039Z,3.30
2019-05-20T00:23:45.445Z,3.63
2019-05-20T00:26:33.110Z,3.00
2019-05-20T00:29:20.769Z,2.63
2019-05-20T00:32:14.041Z,2.60
2019-05-20T00:35:01.097Z,2.77
2019-05-20T00:37:47.982Z,2.83
2019-05-20T00:40:35.458Z,3.90
2019-05-20T00:43:22.903Z,3.10
2019-05-20T00:46:10.634Z,3.93
2019-05-20T00:48:58.211Z,3.23
2019-05-20T00:51:46.097Z,3.73
2019-05-20T00:54:33.294Z,3.50
2019-05-20T00:57:20.580Z,3.70
2019-05-20T01:00:08.778Z,3.07
2019-05-20T01:02:57.403Z,3.00
2019-05-20T01:05:44.944Z,2.70
2019-05-20T01:08:32.116Z,2.80
2019-05-20T01:11:19.503Z,2.90
2019-05-20T01:14:06.807Z,2.60
2019-05-20T01:16:54.199Z,2.73
2019-05-20T01:19:41.427Z,2.57
2019-05-20T01:22:28.894Z,2.20
2019-05-20T01:25:16.172Z,2.60
2019-05-20T01:28:03.856Z,2.57
2019-05-20T01:30:51.174Z,2.20
2019-05-20T01:33:38.173Z,2.10
2019-05-20T01:36:25.705Z,1.97
2019-05-20T01:39:13.141Z,2.57
2019-05-20T01:42:00.746Z,2.37
2019-05-20T01:44:47.790Z,2.20
2019-05-20T01:47:35.339Z,2.10
2019-05-20T01:50:22.834Z,2.20
2019-05-20T01:53:10.189Z,2.10
2019-05-20T01:55:58.356Z,1.60
2019-05-20T01:58:45.710Z,1.90
2019-05-20T02:01:33.438Z,1.70
2019-05-20T02:04:20.668Z,1.20
2019-05-20T02:07:08.206Z,1.57
2019-05-20T02:09:55.381Z,1.13
2019-05-20T02:12:42.617Z,1.07
2019-05-20T02:15:43.581Z,1.37
2019-05-20T02:18:30.549Z,1.20
2019-05-20T02:21:17.965Z,0.80
2019-05-20T02:24:05.281Z,1.13
2019-05-20T02:26:52.701Z,1.10
2019-05-20T02:29:40.437Z,0.90
2019-05-20T02:32:27.955Z,1.10
2019-05-20T02:35:15.553Z,1.13
2019-05-20T02:38:03.289Z,1.17
2019-05-20T02:40:50.374Z,1.27
2019-05-20T02:43:37.505Z,1.30
2019-05-20T02:46:25.202Z,1.33
2019-05-20T02:49:12.641Z,1.20
2019-05-20T02:51:59.823Z,1.30
2019-05-20T02:54:47.230Z,1.30
2019-05-20T02:57:34.450Z,1.40
2019-05-20T03:00:22.260Z,1.43
2019-05-20T03:03:09.513Z,1.70
2019-05-20T03:05:56.939Z,1.47
2019-05-20T03:08:44.256Z,1.80
2019-05-20T03:11:31.231Z,1.70
2019-05-20T03:14:18.636Z,1.80
2019-05-20T03:17:05.907Z,1.83
2019-05-20T03:19:53.626Z,1.40
2019-05-20T03:22:41.470Z,1.50
2019-05-20T03:25:28.851Z,1.60
2019-05-20T03:28:16.782Z,1.67
2019-05-20T03:31:04.247Z,1.43
2019-05-20T03:33:51.527Z,1.80
2019-05-20T03:36:38.994Z,1.60
2019-05-20T03:39:26.552Z,1.60
2019-05-20T03:42:13.848Z,1.77
2019-05-20T03:45:01.246Z,1.90
2019-05-20T03:47:48.965Z,1.73
2019-05-20T03:50:36.240Z,1.90
2019-05-20T03:53:23.883Z,1.70
2019-05-20T03:56:11.320Z,1.67
2019-05-20T03:58:58.701Z,1.70
2019-05-20T04:01:45.701Z,1.63
2019-05-20T04:04:33.178Z,1.70
2019-05-20T04:07:20.161Z,1.70
2019-05-20T04:10:07.538Z,1.73
2019-05-20T04:12:54.674Z,2.03
2019-05-20T04:15:42.162Z,1.73
2019-05-20T04:18:29.970Z,2.00
2019-05-20T04:21:17.439Z,1.90
2019-05-20T04:24:04.887Z,2.00
2019-05-20T04:26:55.223Z,1.80
2019-05-20T04:29:42.991Z,2.07
2019-05-20T04:32:29.932Z,2.80
2019-05-20T04:35:22.429Z,3.40
2019-05-20T04:38:06.457Z,3.10
2019-05-20T04:40:54.129Z,3.20
2019-05-20T04:43:41.709Z,3.20
2019-05-20T04:46:28.940Z,3.00
2019-05-20T04:49:16.594Z,2.40
2019-05-20T04:52:04.195Z,3.00
2019-05-20T04:54:51.453Z,2.40
2019-05-20T04:57:38.772Z,2.30
2019-05-20T05:00:49.704Z,2.47
2019-05-20T05:03:36.845Z,2.33
2019-05-20T05:06:24.545Z,2.90
2019-05-20T05:09:15.323Z,3.57
2019-05-20T05:12:00.832Z,3.90
2019-05-20T05:14:48.075Z,3.50
2019-05-20T05:17:35.270Z,4.00
2019-05-20T05:20:22.588Z,4.60
2019-05-20T05:23:10.023Z,5.33
2019-05-20T05:25:57.651Z,5.10
2019-05-20T05:28:45.200Z,5.00
2019-05-20T05:31:33.046Z,5.20
2019-05-20T05:34:20.758Z,5.73
2019-05-20T05:37:07.888Z,5.27
2019-05-20T05:39:55.464Z,5.30
2019-05-20T05:42:42.946Z,6.13
2019-05-20T05:45:32.308Z,6.27
2019-05-20T05:48:19.323Z,7.03
2019-05-20T05:51:06.840Z,7.00
2019-05-20T05:53:54.245Z,6.83
2019-05-20T05:56:42.053Z,7.53
2019-05-20T05:59:29.268Z,8.17
2019-05-20T06:02:16.856Z,8.30
2019-05-20T06:05:04.765Z,9.00
2019-05-20T06:07:51.768Z,9.13
2019-05-20T06:10:39.481Z,8.43
2019-05-20T06:13:26.512Z,8.70
2019-05-20T06:16:14.081Z,9.37
2019-05-20T06:19:01.535Z,9.77
2019-05-20T06:21:48.463Z,11.17
2019-05-20T06:24:35.384Z,10.13
2019-05-20T06:27:22.925Z,9.73
2019-05-20T06:30:11.861Z,8.47
2019-05-20T06:32:59.292Z,9.33
2019-05-20T06:35:46.792Z,10.83
2019-05-20T06:38:36.090Z,12.37
2019-05-20T06:41:23.295Z,11.30
2019-05-20T06:44:10.476Z,13.23
2019-05-20T06:46:58.160Z,12.40
2019-05-20T06:49:45.450Z,13.20
2019-05-20T06:52:36.042Z,14.73
2019-05-20T06:55:21.489Z,14.40
2019-05-20T06:58:08.935Z,14.07
2019-05-20T07:00:56.083Z,13.70
2019-05-20T07:03:43.640Z,13.87
2019-05-20T07:06:44.711Z,13.20
2019-05-20T07:09:19.801Z,13.57
2019-05-20T07:12:07.134Z,14.00
2019-05-20T07:14:53.978Z,13.63
2019-05-20T07:17:41.506Z,13.77
2019-05-20T07:20:28.766Z,13.90
2019-05-20T07:23:16.572Z,13.93
2019-05-20T07:26:03.909Z,13.93
2019-05-20T07:28:51.549Z,13.70
2019-05-20T07:31:38.859Z,14.73
2019-05-20T07:34:26.626Z,14.50
2019-05-20T07:37:14.280Z,14.40
2019-05-20T07:40:01.873Z,15.37
2019-05-20T07:42:49.614Z,14.10
2019-05-20T07:45:37.630Z,15.30
2019-05-20T07:48:25.135Z,14.63
2019-05-20T07:51:13.446Z,15.53
2019-05-20T07:54:02.012Z,15.93
2019-05-20T07:56:51.781Z,16.00
2019-05-20T07:59:41.585Z,15.23
2019-05-20T08:02:29.207Z,14.10
2019-05-20T08:05:17.153Z,15.23
2019-05-20T08:08:04.810Z,14.93
2019-05-20T08:10:52.199Z,14.70
2019-05-20T08:13:39.917Z,14.67
2019-05-20T08:16:27.082Z,15.80
2019-05-20T08:19:14.403Z,15.70
2019-05-20T08:22:01.705Z,16.30
2019-05-20T08:24:49.547Z,17.73
2019-05-20T08:27:36.985Z,15.90
2019-05-20T08:30:30.767Z,16.17
2019-05-20T08:33:18.248Z,18.30
2019-05-20T08:36:05.463Z,17.20
2019-05-20T08:38:53.204Z,18.23
2019-05-20T08:41:40.409Z,18.40
2019-05-20T08:44:27.629Z,17.67
2019-05-20T08:47:15.353Z,19.50
2019-05-20T08:50:06.505Z,20.07
2019-05-20T08:52:52.137Z,19.07
2019-05-20T08:55:41.396Z,19.47
2019-05-20T08:58:29.007Z,20.13
2019-05-20T09:01:16.407Z,20.10
2019-05-20T09:04:04.195Z,20.57
2019-05-20T09:06:51.666Z,20.83
2019-05-20T09:09:39.396Z,19.57
2019-05-20T09:12:26.924Z,20.87
2019-05-20T09:15:14.525Z,21.07
2019-05-20T09:18:01.703Z,21.43
2019-05-20T09:20:49.263Z,21.73
2019-05-20T09:23:36.440Z,20.47
2019-05-20T09:26:23.982Z,20.50
2019-05-20T09:29:11.737Z,21.20
2019-05-20T09:31:59.327Z,20.83
2019-05-20T09:34:46.766Z,19.50
2019-05-20T09:37:34.669Z,18.30
2019-05-20T09:40:36.831Z,21.07
2019-05-20T09:43:24.217Z,19.10
2019-05-20T09:46:11.925Z,20.87
2019-05-20T09:48:59.812Z,19.97
2019-05-20T09:51:47.637Z,21.02
2019-05-20T09:54:35.139Z,21.30
2019-05-20T09:57:24.170Z,20.17
2019-05-20T10:00:12.381Z,21.13
2019-05-20T10:02:59.928Z,19.80
2019-05-20T10:05:47.303Z,22.70
2019-05-20T10:08:39.618Z,22.13
2019-05-20T10:11:23.799Z,22.20
2019-05-20T10:14:11.623Z,25.92
2019-05-20T10:16:59.450Z,24.93
2019-05-20T10:19:46.634Z,23.63
2019-05-20T10:22:34.579Z,24.60
2019-05-20T10:25:21.948Z,25.20
2019-05-20T10:28:09.677Z,25.87
2019-05-20T10:30:57.401Z,26.73
2019-05-20T10:33:45.141Z,25.67
2019-05-20T10:36:32.486Z,26.47
2019-05-20T10:39:20.053Z,28.30
2019-05-20T10:42:07.419Z,27.57
2019-05-20T10:44:54.721Z,28.30
2019-05-20T10:47:41.989Z,26.87
2019-05-20T10:50:29.485Z,28.30
2019-05-20T10:53:17.164Z,27.97
2019-05-20T10:56:04.395Z,29.73
2019-05-20T10:58:52.160Z,28.20
2019-05-20T11:01:39.558Z,28.07
2019-05-20T11:04:26.713Z,30.07
2019-05-20T11:07:14.079Z,30.53
2019-05-20T11:10:01.756Z,29.57
2019-05-20T11:12:49.421Z,28.73
2019-05-20T11:15:37.465Z,29.87
2019-05-20T11:18:25.127Z,30.17
2019-05-20T11:21:12.668Z,30.30
2019-05-20T11:24:00.075Z,29.00
2019-05-20T11:26:47.539Z,30.50
2019-05-20T11:29:34.637Z,31.43
2019-05-20T11:32:22.142Z,30.03
2019-05-20T11:35:09.996Z,31.30
2019-05-20T11:37:56.897Z,31.03
2019-05-20T11:40:44.409Z,32.40
2019-05-20T11:43:32.041Z,33.57
2019-05-20T11:46:19.377Z,31.23
2019-05-20T11:49:06.902Z,28.93
2019-05-20T11:51:54.221Z,31.47
2019-05-20T11:54:41.687Z,30.37
2019-05-20T11:57:29.474Z,27.27
2019-05-20T12:00:17.425Z,28.33
2019-05-20T12:03:05.021Z,29.80
2019-05-20T12:05:52.522Z,27.57
2019-05-20T12:08:39.818Z,27.03
2019-05-20T12:11:27.427Z,25.73
2019-05-20T12:14:14.756Z,27.40
2019-05-20T12:17:02.133Z,29.50
2019-05-20T12:19:49.389Z,28.57
2019-05-20T12:22:37.079Z,29.80
2019-05-20T12:25:24.626Z,27.90
2019-05-20T12:28:12.124Z,26.57
2019-05-20T12:30:59.859Z,27.43
2019-05-20T12:33:47.248Z,28.50
2019-05-20T12:36:34.705Z,29.57
2019-05-20T12:39:21.943Z,27.70
2019-05-20T12:42:10.416Z,26.70
2019-05-20T12:44:57.797Z,29.57
2019-05-20T12:47:45.634Z,30.30
2019-05-20T12:50:32.956Z,28.13
2019-05-20T12:53:21.060Z,31.93
2019-05-20T12:56:08.492Z,28.07
2019-05-20T12:58:56.356Z,31.10
2019-05-20T13:01:43.734Z,30.77
2019-05-20T13:04:31.319Z,29.93
2019-05-20T13:07:19.012Z,29.93
2019-05-20T13:10:26.560Z,31.90
2019-05-20T13:12:59.438Z,29.30
2019-05-20T13:15:47.285Z,30.92
2019-05-20T13:18:34.770Z,31.00
2019-05-20T13:21:22.168Z,30.60
2019-05-20T13:24:09.251Z,31.73
2019-05-20T13:26:56.530Z,32.30
2019-05-20T13:29:43.866Z,33.03
2019-05-20T13:32:31.069Z,35.30
2019-05-20T13:35:18.448Z,35.60
2019-05-20T13:38:06.176Z,39.27
2019-05-20T13:40:53.409Z,39.87
2019-05-20T13:43:40.919Z,40.00
2019-05-20T13:46:28.544Z,41.90
2019-05-20T13:49:16.068Z,38.23
2019-05-20T13:52:03.644Z,39.83
2019-05-20T13:54:51.054Z,38.73
2019-05-20T13:57:38.314Z,38.73
2019-05-20T14:00:25.895Z,38.07
2019-05-20T14:03:13.174Z,39.50
2019-05-20T14:06:00.471Z,39.63
2019-05-20T14:08:47.572Z,37.90
2019-05-20T14:11:35.070Z,38.60
2019-05-20T14:14:22.829Z,36.80
2019-05-20T14:17:10.381Z,37.33
2019-05-20T14:19:57.564Z,39.23
2019-05-20T14:22:44.991Z,33.73
2019-05-20T14:25:32.170Z,35.78
2019-05-20T14:28:19.480Z,34.13
2019-05-20T14:31:07.350Z,33.98
2019-05-20T14:33:54.725Z,35.57
2019-05-20T14:36:42.270Z,31.70
2019-05-20T14:39:29.958Z,34.83
2019-05-20T14:42:17.413Z,35.00
2019-05-20T14:45:07.008Z,33.25
2019-05-20T14:47:54.282Z,34.37
2019-05-20T14:50:42.573Z,34.80
2019-05-20T14:53:30.343Z,34.53
2019-05-20T14:56:17.863Z,36.77
2019-05-20T14:59:05.315Z,37.07
2019-05-20T15:01:52.488Z,37.47
2019-05-20T15:04:39.938Z,37.15
2019-05-20T15:07:30.640Z,39.83
2019-05-20T15:10:17.200Z,38.53
2019-05-20T15:13:06.057Z,41.23
2019-05-20T15:15:53.085Z,39.17
2019-05-20T15:18:40.558Z,39.97
2019-05-20T15:21:29.521Z,40.93
2019-05-20T15:24:16.983Z,40.70
2019-05-20T15:27:04.549Z,41.93
2019-05-20T15:29:52.054Z,43.30
2019-05-20T15:32:39.525Z,40.80
2019-05-20T15:35:26.725Z,40.97
2019-05-20T15:38:14.193Z,43.73
2019-05-20T15:41:01.885Z,39.90
2019-05-20T15:43:49.073Z,40.07
2019-05-20T15:46:36.320Z,40.27
2019-05-20T15:49:23.690Z,37.27
2019-05-20T15:52:11.130Z,37.47
2019-05-20T15:54:58.492Z,36.13
2019-05-20T15:57:46.324Z,35.87
2019-05-20T16:00:34.102Z,37.17
2019-05-20T16:03:21.875Z,39.17
2019-05-20T16:06:09.248Z,35.60
2019-05-20T16:08:56.491Z,33.27
2019-05-20T16:11:43.830Z,33.33
2019-05-20T16:14:31.351Z,31.90
2019-05-20T16:17:19.144Z,32.10
2019-05-20T16:20:07.534Z,33.57
2019-05-20T16:22:55.527Z,32.47
2019-05-20T16:25:43.071Z,32.13
2019-05-20T16:28:30.434Z,30.47
2019-05-20T16:31:18.025Z,31.10
2019-05-20T16:34:05.331Z,31.43
2019-05-20T16:36:52.508Z,31.87
2019-05-20T16:39:39.937Z,30.77
2019-05-20T16:42:27.329Z,30.63
2019-05-20T16:45:14.990Z,32.67
2019-05-20T16:48:02.688Z,32.67
2019-05-20T16:50:50.187Z,32.50
2019-05-20T16:53:37.260Z,32.00
2019-05-20T16:56:24.354Z,32.93
2019-05-20T16:59:11.981Z,32.50
2019-05-20T17:01:58.928Z,30.60
2019-05-20T17:04:46.425Z,30.37
2019-05-20T17:07:33.916Z,32.40
2019-05-20T17:10:21.671Z,31.93
2019-05-20T17:13:09.190Z,30.70
2019-05-20T17:15:56.476Z,29.80
2019-05-20T17:18:43.611Z,26.43
2019-05-20T17:21:31.169Z,28.67
2019-05-20T17:24:18.844Z,27.70
2019-05-20T17:27:05.902Z,28.73
2019-05-20T17:29:53.707Z,27.10
2019-05-20T17:32:40.919Z,28.00
2019-05-20T17:35:28.399Z,27.47
2019-05-20T17:38:15.913Z,27.00
2019-05-20T17:41:03.692Z,24.67
2019-05-20T17:43:51.388Z,22.83
2019-05-20T17:46:38.883Z,22.60
2019-05-20T17:49:26.762Z,20.03
2019-05-20T17:52:14.580Z,20.47
2019-05-20T17:55:02.096Z,20.97
2019-05-20T17:57:49.391Z,22.17
2019-05-20T18:00:37.391Z,22.87
2019-05-20T18:03:24.670Z,22.70
2019-05-20T18:06:12.483Z,22.67
2019-05-20T18:09:01.204Z,24.77
2019-05-20T18:11:49.087Z,24.57
2019-05-20T18:14:36.324Z,26.37
2019-05-20T18:17:24.030Z,26.87
2019-05-20T18:20:11.606Z,29.70
2019-05-20T18:22:59.334Z,31.27
2019-05-20T18:25:46.401Z,31.63
2019-05-20T18:28:33.697Z,31.83
2019-05-20T18:31:32.138Z,33.13
2019-05-20T18:34:10.439Z,33.77
2019-05-20T18:36:57.665Z,32.17
2019-05-20T18:39:45.270Z,31.93
2019-05-20T18:42:32.994Z,34.00
2019-05-20T18:45:20.496Z,32.70
2019-05-20T18:48:07.946Z,29.43
2019-05-20T18:50:55.578Z,28.50
2019-05-20T18:53:43.304Z,24.20
2019-05-20T18:56:30.919Z,22.17
2019-05-20T18:59:18.398Z,23.57
2019-05-20T19:02:06.013Z,18.90
2019-05-20T19:04:53.553Z,14.13
2019-05-20T19:07:40.899Z,12.00
2019-05-20T19:10:29.109Z,14.03
2019-05-20T19:13:16.513Z,11.50
2019-05-20T19:16:03.851Z,11.80
2019-05-20T19:18:51.208Z,10.80
2019-05-20T19:21:38.852Z,11.90
2019-05-20T19:24:26.403Z,11.60
2019-05-20T19:27:13.380Z,12.23
2019-05-20T19:30:01.079Z,11.70
2019-05-20T19:32:48.476Z,12.27
2019-05-20T19:35:35.559Z,11.53
2019-05-20T19:38:23.060Z,13.87
2019-05-20T19:41:10.354Z,11.50
2019-05-20T19:43:57.992Z,10.40
2019-05-20T19:46:45.540Z,10.20
2019-05-20T19:49:32.571Z,10.37
2019-05-20T19:52:20.427Z,10.90
2019-05-20T19:55:09.113Z,10.07
2019-05-20T19:57:56.655Z,9.83
2019-05-20T20:00:43.681Z,10.47
2019-05-20T20:03:31.192Z,10.67
2019-05-20T20:06:18.693Z,8.97
2019-05-20T20:09:06.642Z,9.67
2019-05-20T20:11:54.317Z,9.67
2019-05-20T20:14:41.695Z,10.13
2019-05-20T20:17:28.778Z,9.23
2019-05-20T20:20:16.238Z,8.23
2019-05-20T20:23:03.803Z,7.13
2019-05-20T20:25:51.341Z,8.23
2019-05-20T20:28:38.391Z,7.80
2019-05-20T20:31:26.229Z,7.77
2019-05-20T20:34:13.568Z,7.70
2019-05-20T20:37:01.009Z,7.70
2019-05-20T20:39:48.043Z,7.63
2019-05-20T20:42:35.819Z,8.13
2019-05-20T20:45:23.118Z,8.33
2019-05-20T20:48:10.946Z,8.30
2019-05-20T20:50:58.519Z,8.20
2019-05-20T20:53:45.637Z,8.53
2019-05-20T20:56:34.271Z,8.47
2019-05-20T20:59:22.137Z,9.40
2019-05-20T21:02:09.711Z,8.90
2019-05-20T21:04:57.123Z,9.10
2019-05-20T21:07:44.773Z,9.63
2019-05-20T21:10:32.277Z,9.07
2019-05-20T21:13:19.618Z,10.07
2019-05-20T21:16:06.959Z,9.50
2019-05-20T21:18:54.333Z,10.50
2019-05-20T21:21:41.470Z,10.73
2019-05-20T21:24:28.847Z,10.80
2019-05-20T21:27:16.118Z,10.83
2019-05-20T21:30:04.758Z,10.63
2019-05-20T21:32:51.977Z,10.03
2019-05-20T21:35:39.556Z,9.73
2019-05-20T21:38:26.910Z,9.10
2019-05-20T21:41:13.955Z,8.50
2019-05-20T21:44:01.542Z,8.57
2019-05-20T21:47:10.073Z,8.80
2019-05-20T21:49:57.417Z,8.77
2019-05-20T21:52:44.571Z,7.97
2019-05-20T21:55:32.327Z,8.13
2019-05-20T21:58:19.611Z,8.17
2019-05-20T22:01:07.146Z,7.07
2019-05-20T22:03:54.738Z,7.93
2019-05-20T22:06:42.456Z,7.37
2019-05-20T22:09:29.990Z,7.57
2019-05-20T22:12:17.310Z,7.53
2019-05-20T22:15:06.820Z,8.03
2019-05-20T22:17:54.322Z,14.40
2019-05-20T22:20:41.793Z,18.20
2019-05-20T22:23:33.416Z,21.30
2019-05-20T22:26:20.633Z,24.13
2019-05-20T22:29:08.245Z,26.27
2019-05-20T22:31:55.859Z,27.60
2019-05-20T22:34:53.072Z,29.27
2019-05-20T22:37:32.162Z,28.90
2019-05-20T22:40:19.626Z,33.20
2019-05-20T22:43:06.968Z,34.40
2019-05-20T22:45:54.385Z,32.53
2019-05-20T22:48:41.692Z,32.87
2019-05-20T22:51:29.728Z,32.30
2019-05-20T22:54:17.174Z,31.87
2019-05-20T22:57:04.903Z,32.37
2019-05-20T22:59:52.165Z,33.03
2019-05-20T23:02:39.897Z,32.80
2019-05-20T23:05:27.126Z,33.77
2019-05-20T23:08:14.311Z,32.70
2019-05-20T23:11:02.012Z,32.53
2019-05-20T23:13:49.573Z,30.97
2019-05-20T23:16:36.750Z,32.47
2019-05-20T23:19:24.499Z,32.70
2019-05-20T23:22:12.329Z,34.87
2019-05-20T23:24:59.089Z,35.13
2019-05-20T23:27:46.350Z,36.20
2019-05-20T23:30:33.651Z,35.77
2019-05-20T23:33:21.019Z,37.77
2019-05-20T23:36:08.192Z,37.93
2019-05-20T23:38:55.814Z,38.30
2019-05-20T23:41:42.762Z,39.50
2019-05-20T23:44:30.163Z,40.23
2019-05-20T23:47:17.657Z,39.40
2019-05-20T23:50:06.300Z,39.67
2019-05-20T23:52:53.625Z,41.73
2019-05-20T23:55:41.099Z,41.90
2019-05-20T23:58:28.637Z,38.83
